createdAt,value
2018-11-28T00:00:27.311Z,93921.25
2018-11-28T00:02:56.335Z,93920.88
2018-11-28T00:05:25.168Z,93922.31
2018-11-28T00:07:53.973Z,93927.25
2018-11-28T00:10:23.034Z,93924.39
2018-11-28T00:12:51.867Z,93922.00
2018-11-28T00:15:20.733Z,93918.53
2018-11-28T00:17:49.527Z,93925.54
2018-11-28T00:20:20.063Z,93931.24
2018-11-28T00:22:48.940Z,93930.29
2018-11-28T00:25:18.367Z,93940.09
2018-11-28T00:27:47.633Z,93943.52
2018-11-28T00:31:49.162Z,93951.94
2018-11-28T00:34:17.973Z,93951.87
2018-11-28T00:36:47.140Z,93947.34
2018-11-28T00:39:15.895Z,93950.45
2018-11-28T00:41:44.753Z,93953.37
2018-11-28T00:44:13.625Z,93954.78
2018-11-28T00:46:42.426Z,93965.43
2018-11-28T00:49:11.279Z,93968.60
2018-11-28T00:51:40.103Z,93966.80
2018-11-28T00:54:08.879Z,93963.64
2018-11-28T00:56:37.663Z,93965.58
2018-11-28T00:59:06.417Z,93970.09
2018-11-28T01:01:35.316Z,93971.14
2018-11-28T01:04:04.215Z,93973.99
2018-11-28T01:06:33.026Z,93969.97
2018-11-28T01:09:01.933Z,93980.61
2018-11-28T01:11:30.786Z,93978.59
2018-11-28T01:13:59.597Z,93976.77
2018-11-28T01:16:28.424Z,93973.63
2018-11-28T01:18:57.238Z,93977.50
2018-11-28T01:21:26.129Z,93978.92
2018-11-28T01:23:55.003Z,93975.95
2018-11-28T01:26:23.844Z,93975.47
2018-11-28T01:28:52.702Z,93971.39
2018-11-28T01:31:21.479Z,93972.42
2018-11-28T01:33:50.330Z,93971.44
2018-11-28T01:36:19.106Z,93967.36
2018-11-28T01:38:47.880Z,93971.13
2018-11-28T01:41:16.633Z,93967.19
2018-11-28T01:43:45.500Z,93971.45
2018-11-28T01:46:14.304Z,93971.03
2018-11-28T01:48:43.059Z,93974.35
2018-11-28T01:51:11.841Z,93983.62
2018-11-28T01:53:40.660Z,93984.12
2018-11-28T01:56:09.467Z,93983.19
2018-11-28T01:58:38.264Z,93987.84
2018-11-28T02:01:07.168Z,93993.58
2018-11-28T02:03:35.954Z,93997.42
2018-11-28T02:06:04.952Z,94000.46
2018-11-28T02:08:33.871Z,93999.66
2018-11-28T02:11:02.734Z,94002.98
2018-11-28T02:13:31.507Z,94019.82
2018-11-28T02:16:00.380Z,94017.16
2018-11-28T02:18:29.210Z,94019.63
2018-11-28T02:20:57.961Z,94026.77
2018-11-28T02:23:26.800Z,94028.92
2018-11-28T02:25:55.591Z,94034.22
2018-11-28T02:28:24.386Z,94045.16
2018-11-28T02:30:53.151Z,94047.76
2018-11-28T02:33:21.955Z,94044.53
2018-11-28T02:35:50.842Z,94047.67
2018-11-28T02:38:19.682Z,94051.41
2018-11-28T02:40:48.493Z,94058.28
2018-11-28T02:43:17.320Z,94058.23
2018-11-28T02:46:28.089Z,94062.86
2018-11-28T02:48:56.844Z,94062.05
2018-11-28T02:51:25.647Z,94066.98
2018-11-28T02:53:54.600Z,94076.58
2018-11-28T02:56:23.414Z,94078.20
2018-11-28T02:58:52.297Z,94082.75
2018-11-28T03:01:25.928Z,94096.52
2018-11-28T03:03:54.931Z,94096.42
2018-11-28T03:06:25.111Z,94098.99
2018-11-28T03:08:54.891Z,94106.22
2018-11-28T03:11:23.807Z,94107.52
2018-11-28T03:13:52.669Z,94110.89
2018-11-28T03:16:21.508Z,94110.69
2018-11-28T03:18:50.343Z,94118.63
2018-11-28T03:21:19.122Z,94124.88
2018-11-28T03:23:47.915Z,94126.00
2018-11-28T03:26:16.729Z,94130.01
2018-11-28T03:28:45.528Z,94131.25
2018-11-28T03:31:14.518Z,94144.09
2018-11-28T03:33:43.542Z,94145.88
2018-11-28T03:36:12.356Z,94149.32
2018-11-28T03:38:41.271Z,94146.42
2018-11-28T03:41:10.134Z,94150.02
2018-11-28T03:43:39.327Z,94150.98
2018-11-28T03:46:08.320Z,94155.05
2018-11-28T03:48:37.095Z,94163.48
2018-11-28T03:51:06.066Z,94167.02
2018-11-28T03:53:34.848Z,94169.65
2018-11-28T03:56:03.663Z,94162.87
2018-11-28T03:58:32.425Z,94177.06
2018-11-28T04:01:01.233Z,94176.09
2018-11-28T04:03:30.251Z,94184.69
2018-11-28T04:05:58.999Z,94182.91
2018-11-28T04:08:27.837Z,94196.18
2018-11-28T04:10:56.625Z,94191.48
2018-11-28T04:13:25.479Z,94193.74
2018-11-28T04:15:54.331Z,94198.11
2018-11-28T04:18:23.188Z,94205.39
2018-11-28T04:20:52.014Z,94219.12
2018-11-28T04:23:20.864Z,94214.94
2018-11-28T04:25:49.621Z,94213.78
2018-11-28T04:28:18.481Z,94223.17
2018-11-28T04:30:47.282Z,94219.27
2018-11-28T04:33:16.145Z,94219.11
2018-11-28T04:35:44.973Z,94224.59
2018-11-28T04:38:13.822Z,94222.97
2018-11-28T04:40:42.643Z,94225.23
2018-11-28T04:43:11.447Z,94226.37
2018-11-28T04:45:40.208Z,94229.43
2018-11-28T04:48:08.975Z,94232.97
2018-11-28T04:50:37.772Z,94236.22
2018-11-28T04:53:07.634Z,94242.36
2018-11-28T04:55:36.537Z,94240.09
2018-11-28T04:58:05.316Z,94242.03
2018-11-28T05:00:34.139Z,94243.65
2018-11-28T05:03:02.944Z,94245.59
2018-11-28T05:05:31.757Z,94249.33
2018-11-28T05:08:01.056Z,94261.28
2018-11-28T05:10:30.976Z,94266.95
2018-11-28T05:13:00.539Z,94265.34
2018-11-28T05:15:32.668Z,94261.13
2018-11-28T05:18:01.535Z,94266.62
2018-11-28T05:20:35.414Z,94268.58
2018-11-28T05:23:05.399Z,94279.88
2018-11-28T05:25:35.105Z,94289.24
2018-11-28T05:28:04.081Z,94291.18
2018-11-28T05:30:33.609Z,94293.45
2018-11-28T05:33:02.807Z,94298.12
2018-11-28T05:35:34.738Z,94307.67
2018-11-28T05:38:05.404Z,94310.89
2018-11-28T05:40:34.188Z,94314.47
2018-11-28T05:43:02.971Z,94312.52
2018-11-28T05:45:32.132Z,94319.94
2018-11-28T05:48:00.902Z,94320.93
2018-11-28T05:50:29.780Z,94322.03
2018-11-28T05:52:58.618Z,94338.36
2018-11-28T05:55:27.451Z,94331.58
2018-11-28T05:57:56.297Z,94339.98
2018-11-28T06:00:45.056Z,94346.47
2018-11-28T06:03:14.262Z,94353.28
2018-11-28T06:05:43.479Z,94354.73
2018-11-28T06:08:12.314Z,94359.41
2018-11-28T06:10:44.550Z,94364.27
2018-11-28T06:13:13.405Z,94356.19
2018-11-28T06:15:42.223Z,94370.73
2018-11-28T06:18:11.001Z,94370.41
2018-11-28T06:20:39.809Z,94377.54
2018-11-28T06:23:08.707Z,94380.42
2018-11-28T06:25:37.510Z,94390.10
2018-11-28T06:28:06.924Z,94390.06
2018-11-28T06:30:35.903Z,94397.67
2018-11-28T06:33:04.763Z,94406.58
2018-11-28T06:35:33.636Z,94404.63
2018-11-28T06:38:02.494Z,94409.16
2018-11-28T06:40:31.319Z,94410.45
2018-11-28T06:43:00.218Z,94410.95
2018-11-28T06:45:29.020Z,94421.16
2018-11-28T06:47:57.883Z,94425.53
2018-11-28T06:50:26.685Z,94424.09
2018-11-28T06:52:55.565Z,94432.84
2018-11-28T06:55:24.376Z,94439.63
2018-11-28T06:57:53.269Z,94445.28
2018-11-28T07:00:23.027Z,94448.53
2018-11-28T07:02:53.439Z,94448.55
2018-11-28T07:05:22.926Z,94455.81
2018-11-28T07:07:51.993Z,94457.93
2018-11-28T07:10:21.849Z,94463.41
2018-11-28T07:12:50.773Z,94474.90
2018-11-28T07:15:21.952Z,94478.45
2018-11-28T07:17:50.907Z,94478.57
2018-11-28T07:20:20.136Z,94480.97
2018-11-28T07:22:48.984Z,94484.39
2018-11-28T07:25:19.421Z,94490.86
2018-11-28T07:27:49.087Z,94488.79
2018-11-28T07:30:22.777Z,94489.78
2018-11-28T07:32:53.976Z,94490.93
2018-11-28T07:35:23.178Z,94495.94
2018-11-28T07:37:51.958Z,94497.71
2018-11-28T07:40:23.015Z,94503.06
2018-11-28T07:43:05.441Z,94512.14
2018-11-28T07:45:34.386Z,94517.31
2018-11-28T07:48:03.237Z,94517.14
2018-11-28T07:50:32.084Z,94521.50
2018-11-28T07:53:00.944Z,94526.31
2018-11-28T07:55:29.798Z,94528.37
2018-11-28T07:57:58.706Z,94535.36
2018-11-28T08:00:27.564Z,94539.05
2018-11-28T08:02:56.425Z,94541.18
2018-11-28T08:05:25.286Z,94550.30
2018-11-28T08:07:54.179Z,94547.72
2018-11-28T08:10:26.492Z,94548.22
2018-11-28T08:12:56.312Z,94552.91
2018-11-28T08:15:25.253Z,94559.05
2018-11-28T08:17:54.113Z,94556.31
2018-11-28T08:20:22.936Z,94574.45
2018-11-28T08:22:51.721Z,94573.47
2018-11-28T08:25:20.551Z,94576.72
2018-11-28T08:27:50.807Z,94579.93
2018-11-28T08:30:21.243Z,94587.19
2018-11-28T08:32:50.084Z,94590.06
2018-11-28T08:35:18.996Z,94590.57
2018-11-28T08:37:47.812Z,94603.64
2018-11-28T08:40:17.851Z,94607.52
2018-11-28T08:42:46.685Z,94612.06
2018-11-28T08:45:16.639Z,94618.87
2018-11-28T08:47:46.545Z,94620.56
2018-11-28T08:50:17.648Z,94626.02
2018-11-28T08:52:46.605Z,94626.08
2018-11-28T08:55:15.380Z,94630.77
2018-11-28T08:57:44.230Z,94632.30
2018-11-28T09:00:19.116Z,94635.63
2018-11-28T09:02:49.041Z,94642.91
2018-11-28T09:05:17.842Z,94642.33
2018-11-28T09:07:46.670Z,94659.55
2018-11-28T09:10:16.311Z,94654.89
2018-11-28T09:12:45.779Z,94651.63
2018-11-28T09:15:18.661Z,94654.41
2018-11-28T09:17:47.443Z,94655.30
2018-11-28T09:20:16.236Z,94658.92
2018-11-28T09:22:45.027Z,94663.02
2018-11-28T09:25:16.015Z,94651.53
2018-11-28T09:27:45.867Z,94652.16
2018-11-28T09:30:16.744Z,94655.11
2018-11-28T09:32:46.038Z,94666.75
2018-11-28T09:35:16.503Z,94668.82
2018-11-28T09:37:46.264Z,94667.49
2018-11-28T09:40:26.970Z,94668.04
2018-11-28T09:42:57.474Z,94667.34
2018-11-28T09:45:26.478Z,94666.69
2018-11-28T09:47:55.306Z,94669.09
2018-11-28T09:50:25.574Z,94675.11
2018-11-28T09:52:54.441Z,94672.22
2018-11-28T09:55:24.492Z,94668.45
2018-11-28T09:57:53.740Z,94677.54
2018-11-28T10:00:24.835Z,94683.90
2018-11-28T10:02:55.755Z,94681.65
2018-11-28T10:05:32.553Z,94681.87
2018-11-28T10:08:01.613Z,94683.98
2018-11-28T10:10:30.570Z,94691.08
2018-11-28T10:12:59.442Z,94690.03
2018-11-28T10:15:28.978Z,94691.81
2018-11-28T10:17:58.203Z,94692.48
2018-11-28T10:20:27.100Z,94696.91
2018-11-28T10:22:55.915Z,94699.90
2018-11-28T10:25:27.040Z,94702.78
2018-11-28T10:28:03.948Z,94698.61
2018-11-28T10:30:35.544Z,94707.33
2018-11-28T10:33:05.830Z,94712.21
2018-11-28T10:35:34.813Z,94710.63
2018-11-28T10:38:03.645Z,94709.81
2018-11-28T10:40:32.829Z,94714.17
2018-11-28T10:43:01.997Z,94711.73
2018-11-28T10:45:31.356Z,94715.13
2018-11-28T10:48:00.260Z,94715.55
2018-11-28T10:50:29.158Z,94723.94
2018-11-28T10:52:57.975Z,94725.23
2018-11-28T10:55:27.383Z,94724.31
2018-11-28T10:57:56.287Z,94716.51
2018-11-28T11:00:33.796Z,94727.97
2018-11-28T11:03:07.800Z,94728.73
2018-11-28T11:05:41.774Z,94731.57
2018-11-28T11:08:16.206Z,94726.45
2018-11-28T11:10:50.199Z,94731.53
2018-11-28T11:13:24.162Z,94728.70
2018-11-28T11:15:57.056Z,94736.70
2018-11-28T11:18:26.460Z,94740.52
2018-11-28T11:20:55.395Z,94741.97
2018-11-28T11:23:24.393Z,94744.06
2018-11-28T11:25:53.721Z,94745.30
2018-11-28T11:28:22.980Z,94749.06
2018-11-28T11:30:52.224Z,94757.91
2018-11-28T11:33:21.452Z,94760.37
2018-11-28T11:35:50.341Z,94763.30
2018-11-28T11:38:19.151Z,94761.05
2018-11-28T11:40:48.015Z,94765.00
2018-11-28T11:43:16.830Z,94763.88
2018-11-28T11:45:45.660Z,94767.34
2018-11-28T11:48:14.529Z,94765.89
2018-11-28T11:50:43.392Z,94771.59
2018-11-28T11:53:15.173Z,94774.31
2018-11-28T11:55:43.988Z,94774.50
2018-11-28T11:58:12.821Z,94774.98
2018-11-28T12:00:43.275Z,94783.47
2018-11-28T12:03:13.197Z,94783.72
2018-11-28T12:05:43.768Z,94784.43
2018-11-28T12:08:12.543Z,94788.78
2018-11-28T12:10:41.807Z,94789.33
2018-11-28T12:13:10.773Z,94792.25
2018-11-28T12:15:39.664Z,94789.59
2018-11-28T12:18:08.839Z,94800.62
2018-11-28T12:20:42.353Z,94807.50
2018-11-28T12:23:11.161Z,94809.69
2018-11-28T12:25:40.094Z,94805.25
2018-11-28T12:28:09.071Z,94802.20
2018-11-28T12:30:38.049Z,94813.00
2018-11-28T12:33:07.978Z,94815.61
2018-11-28T12:35:37.015Z,94823.34
2018-11-28T12:38:06.572Z,94826.88
2018-11-28T12:40:36.794Z,94828.59
2018-11-28T12:43:07.409Z,94835.81
2018-11-28T12:45:36.576Z,94843.30
2018-11-28T12:48:05.425Z,94841.08
2018-11-28T12:50:34.380Z,94849.44
2018-11-28T12:53:03.544Z,94847.81
2018-11-28T12:55:34.036Z,94847.62
2018-11-28T12:58:02.862Z,94850.52
2018-11-28T13:00:33.967Z,94850.63
2018-11-28T13:03:03.170Z,94860.79
2018-11-28T13:05:32.007Z,94861.52
2018-11-28T13:08:00.805Z,94863.94
2018-11-28T13:10:31.748Z,94876.23
2018-11-28T13:13:00.531Z,94882.73
2018-11-28T13:15:29.343Z,94882.29
2018-11-28T13:17:58.238Z,94890.24
2018-11-28T13:20:27.119Z,94900.47
2018-11-28T13:22:57.021Z,94907.97
2018-11-28T13:25:27.243Z,94918.49
2018-11-28T13:27:56.273Z,94925.19
2018-11-28T13:30:26.319Z,94925.38
2018-11-28T13:32:55.929Z,94931.89
2018-11-28T13:35:27.695Z,94940.16
2018-11-28T13:38:02.024Z,94942.27
2018-11-28T13:40:30.926Z,94947.17
2018-11-28T13:42:59.804Z,94951.43
2018-11-28T13:45:30.171Z,94960.23
2018-11-28T13:47:59.043Z,94960.50
2018-11-28T13:50:28.235Z,94970.09
2018-11-28T13:52:57.756Z,94972.64
2018-11-28T13:55:39.833Z,94972.45
2018-11-28T13:58:05.705Z,94970.08
2018-11-28T14:00:34.624Z,94978.98
2018-11-28T14:03:03.811Z,94977.50
2018-11-28T14:05:32.610Z,94986.02
2018-11-28T14:08:01.573Z,94998.23
2018-11-28T14:10:30.408Z,94999.53
2018-11-28T14:12:59.340Z,94997.61
2018-11-28T14:15:28.165Z,95006.44
2018-11-28T14:18:00.085Z,95006.05
2018-11-28T14:20:28.995Z,95016.21
2018-11-28T14:22:57.780Z,95016.99
2018-11-28T14:25:26.721Z,95023.91
2018-11-28T14:27:55.780Z,95031.93
2018-11-28T14:30:25.352Z,95032.63
2018-11-28T14:32:54.143Z,95033.80
2018-11-28T14:35:23.506Z,95044.30
2018-11-28T14:37:52.670Z,95043.98
2018-11-28T14:40:23.494Z,95040.08
2018-11-28T14:42:54.229Z,95048.31
2018-11-28T14:45:23.518Z,95060.36
2018-11-28T14:47:52.660Z,95054.75
2018-11-28T14:50:22.487Z,95060.27
2018-11-28T14:52:52.350Z,95068.81
2018-11-28T14:55:26.045Z,95076.55
2018-11-28T14:57:55.056Z,95078.83
2018-11-28T15:00:24.936Z,95082.70
2018-11-28T15:02:56.109Z,95090.97
2018-11-28T15:06:06.968Z,95093.65
2018-11-28T15:08:35.878Z,95102.62
2018-11-28T15:11:07.441Z,95097.51
2018-11-28T15:13:37.017Z,95112.16
2018-11-28T15:16:06.016Z,95115.67
2018-11-28T15:18:34.785Z,95132.42
2018-11-28T15:21:03.653Z,95131.47
2018-11-28T15:23:32.960Z,95136.93
2018-11-28T15:26:01.894Z,95136.29
2018-11-28T15:28:30.820Z,95152.16
2018-11-28T15:30:59.674Z,95148.34
2018-11-28T15:33:28.522Z,95150.85
2018-11-28T15:35:57.346Z,95156.66
2018-11-28T15:38:26.322Z,95156.42
2018-11-28T15:40:55.180Z,95162.44
2018-11-28T15:43:23.996Z,95160.95
2018-11-28T15:45:52.875Z,95166.79
2018-11-28T15:48:21.698Z,95174.53
2018-11-28T15:50:50.490Z,95172.59
2018-11-28T15:53:19.961Z,95178.86
2018-11-28T15:55:48.809Z,95168.27
2018-11-28T15:58:17.677Z,95175.75
2018-11-28T16:00:46.888Z,95185.37
2018-11-28T16:03:16.162Z,95187.30
2018-11-28T16:05:45.110Z,95193.11
2018-11-28T16:08:14.057Z,95199.08
2018-11-28T16:10:44.575Z,95199.43
2018-11-28T16:13:18.131Z,95205.98
2018-11-28T16:15:52.515Z,95207.86
2018-11-28T16:18:21.829Z,95209.91
2018-11-28T16:20:51.048Z,95220.80
2018-11-28T16:23:20.441Z,95223.68
2018-11-28T16:25:49.775Z,95225.62
2018-11-28T16:28:18.743Z,95227.31
2018-11-28T16:30:47.862Z,95240.97
2018-11-28T16:33:17.047Z,95239.27
2018-11-28T16:35:45.897Z,95250.92
2018-11-28T16:38:14.901Z,95252.80
2018-11-28T16:40:43.937Z,95261.22
2018-11-28T16:43:12.807Z,95262.31
2018-11-28T16:45:41.944Z,95274.53
2018-11-28T16:48:10.577Z,95277.66
2018-11-28T16:50:39.743Z,95275.48
2018-11-28T16:53:14.677Z,95279.11
2018-11-28T16:55:43.481Z,95281.09
2018-11-28T16:58:12.303Z,95286.87
2018-11-28T17:00:42.894Z,95285.31
2018-11-28T17:03:11.702Z,95295.27
2018-11-28T17:05:40.493Z,95296.79
2018-11-28T17:08:10.291Z,95300.89
2018-11-28T17:10:39.139Z,95300.34
2018-11-28T17:13:08.559Z,95308.63
2018-11-28T17:15:37.322Z,95305.48
2018-11-28T17:18:06.779Z,95314.39
2018-11-28T17:20:36.077Z,95317.52
2018-11-28T17:23:05.215Z,95320.56
2018-11-28T17:25:34.033Z,95327.83
2018-11-28T17:28:02.877Z,95334.73
2018-11-28T17:30:31.800Z,95330.41
2018-11-28T17:33:07.213Z,95334.27
2018-11-28T17:35:36.034Z,95347.03
2018-11-28T17:38:04.908Z,95354.20
2018-11-28T17:40:33.691Z,95347.05
2018-11-28T17:43:02.504Z,95361.92
2018-11-28T17:45:31.350Z,95358.41
2018-11-28T17:48:00.158Z,95361.73
2018-11-28T17:50:28.995Z,95365.81
2018-11-28T17:53:00.662Z,95365.80
2018-11-28T17:55:30.997Z,95366.37
2018-11-28T17:57:59.809Z,95374.11
2018-11-28T18:00:28.713Z,95382.66
2018-11-28T18:02:57.507Z,95382.55
2018-11-28T18:05:26.382Z,95380.13
2018-11-28T18:07:55.154Z,95397.77
2018-11-28T18:10:23.988Z,95399.19
2018-11-28T18:13:08.428Z,95402.46
2018-11-28T18:15:37.310Z,95405.75
2018-11-28T18:18:08.104Z,95402.70
2018-11-28T18:20:37.067Z,95408.64
2018-11-28T18:23:07.654Z,95410.41
2018-11-28T18:25:36.564Z,95418.16
2018-11-28T18:28:05.473Z,95422.48
2018-11-28T18:30:34.273Z,95420.71
2018-11-28T18:33:03.764Z,95422.84
2018-11-28T18:35:32.609Z,95427.64
2018-11-28T18:38:01.341Z,95423.30
2018-11-28T18:40:30.127Z,95427.04
2018-11-28T18:42:59.028Z,95428.47
2018-11-28T18:45:29.521Z,95439.34
2018-11-28T18:47:58.328Z,95433.02
2018-11-28T18:50:27.165Z,95439.22
2018-11-28T18:52:56.040Z,95439.00
2018-11-28T18:55:25.238Z,95449.40
2018-11-28T18:57:55.408Z,95452.58
2018-11-28T19:00:26.337Z,95458.41
2018-11-28T19:02:55.911Z,95465.30
2018-11-28T19:05:25.000Z,95468.09
2018-11-28T19:07:53.864Z,95467.05
2018-11-28T19:10:26.681Z,95473.15
2018-11-28T19:12:53.547Z,95477.84
2018-11-28T19:15:24.273Z,95477.84
2018-11-28T19:17:53.478Z,95481.48
2018-11-28T19:20:23.205Z,95480.55
2018-11-28T19:22:52.844Z,95488.28
2018-11-28T19:25:26.862Z,95490.27
2018-11-28T19:27:55.738Z,95488.84
2018-11-28T19:30:30.929Z,95495.39
2018-11-28T19:32:54.870Z,95504.40
2018-11-28T19:35:23.984Z,95501.11
2018-11-28T19:37:53.128Z,95504.07
2018-11-28T19:40:31.196Z,95507.33
2018-11-28T19:42:59.955Z,95508.70
2018-11-28T19:45:28.854Z,95520.06
2018-11-28T19:47:57.656Z,95522.85
2018-11-28T19:50:28.269Z,95535.11
2018-11-28T19:52:57.076Z,95524.09
2018-11-28T19:55:25.898Z,95530.53
2018-11-28T19:57:54.727Z,95531.92
2018-11-28T20:00:23.638Z,95531.78
2018-11-28T20:02:52.535Z,95539.49
2018-11-28T20:05:21.445Z,95535.92
2018-11-28T20:07:51.492Z,95544.22
2018-11-28T20:10:21.461Z,95547.50
2018-11-28T20:12:50.443Z,95544.69
2018-11-28T20:15:23.472Z,95550.83
2018-11-28T20:17:52.461Z,95557.91
2018-11-28T20:20:21.625Z,95558.22
2018-11-28T20:22:50.517Z,95560.33
2018-11-28T20:25:20.427Z,95560.08
2018-11-28T20:27:53.299Z,95560.98
2018-11-28T20:30:24.134Z,95556.45
2018-11-28T20:32:52.990Z,95572.80
2018-11-28T20:35:21.762Z,95575.91
2018-11-28T20:37:50.546Z,95572.34
2018-11-28T20:40:19.499Z,95576.82
2018-11-28T20:42:54.323Z,95579.16
2018-11-28T20:45:23.746Z,95576.22
2018-11-28T20:47:52.669Z,95586.78
2018-11-28T20:50:28.554Z,95589.27
2018-11-28T20:53:02.383Z,95588.53
2018-11-28T20:55:31.250Z,95598.64
2018-11-28T20:58:00.022Z,95605.44
2018-11-28T21:00:28.841Z,95608.71
2018-11-28T21:02:57.604Z,95610.45
2018-11-28T21:05:26.455Z,95616.39
2018-11-28T21:07:55.276Z,95616.63
2018-11-28T21:10:29.153Z,95614.84
2018-11-28T21:12:57.923Z,95624.11
2018-11-28T21:15:26.741Z,95620.21
2018-11-28T21:17:55.574Z,95627.59
2018-11-28T21:20:24.473Z,95627.97
2018-11-28T21:22:56.389Z,95623.39
2018-11-28T21:25:25.262Z,95636.45
2018-11-28T21:27:54.093Z,95641.63
2018-11-28T21:30:22.926Z,95645.70
2018-11-28T21:32:52.744Z,95643.13
2018-11-28T21:35:37.936Z,95640.25
2018-11-28T21:38:07.523Z,95648.45
2018-11-28T21:40:36.383Z,95651.15
2018-11-28T21:43:05.689Z,95649.36
2018-11-28T21:45:34.589Z,95649.64
2018-11-28T21:48:03.475Z,95649.28
2018-11-28T21:50:33.063Z,95652.70
2018-11-28T21:53:01.862Z,95658.97
2018-11-28T21:55:30.717Z,95657.78
2018-11-28T21:57:59.525Z,95672.80
2018-11-28T22:00:28.624Z,95670.16
2018-11-28T22:02:57.409Z,95668.94
2018-11-28T22:05:26.578Z,95670.72
2018-11-28T22:07:55.367Z,95669.25
2018-11-28T22:10:26.004Z,95666.46
2018-11-28T22:12:55.953Z,95677.38
2018-11-28T22:15:24.819Z,95675.76
2018-11-28T22:17:57.706Z,95677.69
2018-11-28T22:20:27.196Z,95680.16
2018-11-28T22:22:56.022Z,95692.77
2018-11-28T22:25:25.883Z,95677.00
2018-11-28T22:27:54.875Z,95685.44
2018-11-28T22:30:25.579Z,95681.82
2018-11-28T22:32:54.370Z,95676.08
2018-11-28T22:35:23.152Z,95673.06
2018-11-28T22:37:52.023Z,95680.53
2018-11-28T22:40:22.910Z,95687.09
2018-11-28T22:42:51.657Z,95686.50
2018-11-28T22:45:21.624Z,95685.52
2018-11-28T22:47:50.471Z,95696.44
2018-11-28T22:50:19.711Z,95695.70
2018-11-28T22:52:48.485Z,95704.22
2018-11-28T22:55:17.786Z,95701.53
2018-11-28T22:57:46.623Z,95711.62
2018-11-28T23:00:22.887Z,95702.23
2018-11-28T23:03:01.293Z,95705.38
2018-11-28T23:05:38.050Z,95715.70
2018-11-28T23:08:08.919Z,95719.36
2018-11-28T23:10:38.496Z,95713.62
2018-11-28T23:13:08.195Z,95718.08
2018-11-28T23:15:37.369Z,95711.34
2018-11-28T23:18:07.033Z,95717.05
2018-11-28T23:20:36.073Z,95722.98
2018-11-28T23:23:05.082Z,95723.57
2018-11-28T23:25:33.871Z,95730.53
2018-11-28T23:28:02.670Z,95718.72
2018-11-28T23:30:31.535Z,95719.98
2018-11-28T23:33:00.323Z,95718.67
2018-11-28T23:35:29.118Z,95716.81
2018-11-28T23:37:57.929Z,95720.08
2018-11-28T23:40:27.216Z,95723.70
2018-11-28T23:42:56.549Z,95722.06
2018-11-28T23:45:26.525Z,95724.39
2018-11-28T23:47:55.329Z,95723.13
2018-11-28T23:50:26.247Z,95730.03
2018-11-28T23:52:55.945Z,95729.75
2018-11-28T23:55:29.732Z,95737.95
2018-11-28T23:57:59.266Z,95743.17
